Time;durP1;ratioP1;P1;durP2;ratioP2;P2;SDS_P1;SDS_P2;PMS_P1;PMS_P2;Temp;Humidity;BMP_temperature;BMP_pressure;BME280_temperature;BME280_humidity;BME280_pressure;Samples;Min_cycle;Max_cycle;Signal;HPM_P1;HPM_P2
2022/06/30 00:03:41;;;;;;;12.48;7.28;;;;;17.50;100624.00;;;;10473499;28;20197;-76
2022/06/30 00:08:43;;;;;;;14.07;7.30;;;;;17.40;100622.00;;;;10505820;28;20212;-76
2022/06/30 00:13:45;;;;;;;13.90;7.30;;;;;17.30;100617.00;;;;10522628;28;20193;-76
2022/06/30 00:18:47;;;;;;;11.73;7.63;;;;;17.10;100622.00;;;;10489165;28;20181;-76
2022/06/30 00:23:49;;;;;;;17.07;8.57;;;;;17.00;100638.00;;;;10505534;28;20204;-76
2022/06/30 00:28:51;;;;;;;12.87;7.23;;;;;16.90;100643.00;;;;10522218;28;20209;-76
2022/06/30 00:33:53;;;;;;;11.87;7.80;;;;;16.80;100636.00;;;;10481057;28;20237;-76
2022/06/30 00:38:55;;;;;;;13.47;6.50;;;;;16.70;100644.00;;;;10504911;28;20702;-76
2022/06/30 00:43:57;;;;;;;9.93;7.50;;;;;16.70;100657.00;;;;10488816;28;20280;-76
2022/06/30 00:49:00;;;;;;;11.07;6.97;;;;;16.60;100658.00;;;;10504792;28;20691;-76
2022/06/30 00:54:04;;;;;;;11.87;6.63;;;;;16.60;100660.00;;;;10521176;28;20289;-76
2022/06/30 00:59:08;;;;;;;12.03;5.70;;;;;16.60;100664.00;;;;10538397;28;20711;-76
2022/06/30 01:04:12;;;;;;;12.10;6.37;;;;;16.50;100665.00;;;;10519385;28;20192;-76
2022/06/30 01:12:41;;;;;;;7.53;5.93;;;;;16.40;100663.00;;;;10487105;28;20579;-76
2022/06/30 01:14:39;;;;;;;8.33;5.30;;;;;16.40;100657.00;;;;10538583;28;20185;-76
2022/06/30 01:19:55;;;;;;;8.53;6.20;;;;;16.30;100654.00;;;;10503925;28;20189;-76
2022/06/30 01:24:57;;;;;;;12.57;7.13;;;;;16.20;100656.00;;;;10502946;28;20200;-76
2022/06/30 01:29:59;;;;;;;8.83;6.50;;;;;16.20;100665.00;;;;10502911;28;20287;-76
2022/06/30 01:35:01;;;;;;;11.10;6.40;;;;;16.20;100671.00;;;;10444631;28;20201;-76
2022/06/30 01:40:03;;;;;;;12.40;7.00;;;;;16.30;100670.00;;;;10461425;28;20251;-76
2022/06/30 01:45:06;;;;;;;12.23;7.80;;;;;16.30;100662.00;;;;10477279;28;20189;-76
2022/06/30 01:50:21;;;;;;;16.40;7.43;;;;;16.30;100644.00;;;;10477287;28;20224;-76
2022/06/30 01:55:24;;;;;;;11.97;8.30;;;;;16.20;100637.00;;;;10444277;28;20212;-76
2022/06/30 02:00:27;;;;;;;16.37;8.37;;;;;16.00;100663.00;;;;10501353;28;20209;-76
2022/06/30 02:05:30;;;;;;;13.03;9.03;;;;;16.00;100653.00;;;;10485551;28;20200;-76
2022/06/30 02:10:32;;;;;;;13.67;9.00;;;;;15.90;100652.00;;;;10501902;28;20226;-76
2022/06/30 02:15:36;;;;;;;14.57;10.17;;;;;15.90;100643.00;;;;10485146;28;20193;-76
2022/06/30 02:20:38;;;;;;;15.77;10.70;;;;;15.80;100651.00;;;;10519385;28;20231;-76
2022/06/30 02:25:40;;;;;;;12.40;9.63;;;;;15.70;100654.00;;;;10493592;28;20203;-76
2022/06/30 02:30:42;;;;;;;10.23;9.13;;;;;15.70;100643.00;;;;10509569;28;20582;-76
2022/06/30 02:35:44;;;;;;;12.80;9.80;;;;;15.60;100639.00;;;;10484975;28;20235;-76
2022/06/30 02:40:46;;;;;;;14.90;8.83;;;;;15.50;100638.00;;;;10484866;28;20186;-76
2022/06/30 02:45:48;;;;;;;12.67;8.40;;;;;15.40;100664.00;;;;10468122;28;20186;-76
2022/06/30 02:50:50;;;;;;;14.43;9.00;;;;;15.50;100702.00;;;;10484360;28;20221;-76
2022/06/30 02:55:53;;;;;;;13.57;9.03;;;;;15.60;100698.00;;;;10468075;28;20193;-76
2022/06/30 03:00:55;;;;;;;14.27;10.67;;;;;15.60;100703.00;;;;10490868;28;20220;-76
2022/06/30 03:05:57;;;;;;;12.90;8.50;;;;;15.60;100696.00;;;;10508838;28;20219;-75
2022/06/30 03:10:59;;;;;;;13.83;9.00;;;;;15.60;100698.00;;;;10508522;28;20209;-76
2022/06/30 03:16:02;;;;;;;10.73;7.47;;;;;15.60;100706.00;;;;10543373;28;20181;-76
2022/06/30 03:21:04;;;;;;;10.23;7.63;;;;;15.60;100701.00;;;;10507665;28;20655;-76
2022/06/30 03:26:06;;;;;;;10.27;6.23;;;;;15.50;100692.00;;;;10524479;28;20250;-76
2022/06/30 03:31:08;;;;;;;8.60;5.53;;;;;15.50;100689.00;;;;10507724;28;20695;-76
2022/06/30 03:36:10;;;;;;;11.43;4.73;;;;;15.40;100692.00;;;;10507764;28;20193;-76
2022/06/30 03:41:12;;;;;;;7.90;4.17;;;;;15.40;100690.00;;;;10491637;28;20177;-76
2022/06/30 03:46:14;;;;;;;11.73;3.90;;;;;15.40;100686.00;;;;10540569;28;20213;-76
2022/06/30 03:51:16;;;;;;;7.13;3.30;;;;;15.40;100697.00;;;;10523777;28;20721;-76
2022/06/30 03:56:18;;;;;;;8.87;3.60;;;;;15.50;100693.00;;;;10541612;28;20602;-76
2022/06/30 04:01:20;;;;;;;13.80;3.90;;;;;15.50;100701.00;;;;10526494;28;20273;-76
2022/06/30 04:06:23;;;;;;;11.97;4.30;;;;;15.70;100701.00;;;;10549041;28;20204;-76
2022/06/30 04:11:25;;;;;;;9.30;4.07;;;;;15.80;100700.00;;;;10564947;28;20191;-76
2022/06/30 04:16:27;;;;;;;11.13;3.37;;;;;15.90;100697.00;;;;10536134;28;20192;-76
2022/06/30 04:21:29;;;;;;;7.10;3.50;;;;;16.10;100695.00;;;;10506073;28;20271;-76
2022/06/30 04:26:31;;;;;;;8.83;3.07;;;;;16.20;100697.00;;;;10522695;28;20189;-76
2022/06/30 04:36:53;;;;;;;7.57;2.90;;;;;16.40;100700.00;;;;10497745;28;20252;-76
2022/06/30 04:41:55;;;;;;;6.53;2.37;;;;;16.40;100697.00;;;;10463399;28;20224;-76
2022/06/30 04:46:57;;;;;;;6.57;3.20;;;;;16.40;100704.00;;;;10462181;28;20667;-76
2022/06/30 04:51:59;;;;;;;7.70;2.90;;;;;16.40;100709.00;;;;10430128;28;20194;-76
2022/06/30 04:57:01;;;;;;;8.50;3.13;;;;;16.60;100710.00;;;;10473215;28;20221;-76
2022/06/30 05:02:03;;;;;;;7.17;2.90;;;;;16.80;100713.00;;;;10487161;28;20219;-76
2022/06/30 05:07:05;;;;;;;5.97;2.50;;;;;17.30;100712.00;;;;10504345;28;20189;-76
2022/06/30 05:12:08;;;;;;;9.10;2.57;;;;;17.80;100702.00;;;;10520381;28;20264;-75
2022/06/30 05:17:10;;;;;;;7.15;3.13;;;;;18.10;100692.00;;;;10487007;28;20829;-76
2022/06/30 05:22:12;;;;;;;5.55;2.55;;;;;18.40;100691.00;;;;10470426;28;20197;-76
2022/06/30 05:27:14;;;;;;;8.30;2.47;;;;;18.60;100702.00;;;;10520074;28;20220;-76
2022/06/30 05:32:16;;;;;;;8.35;2.80;;;;;18.70;100701.00;;;;10519338;28;20207;-76
2022/06/30 05:37:18;;;;;;;6.15;2.38;;;;;19.20;100701.00;;;;10519908;28;20224;-76
2022/06/30 05:42:20;;;;;;;7.93;2.80;;;;;19.60;100704.00;;;;10485951;28;20193;-76
2022/06/30 05:47:22;;;;;;;5.60;2.00;;;;;20.20;100721.00;;;;10502602;28;20191;-76
2022/06/30 05:52:24;;;;;;;5.53;1.90;;;;;20.60;100731.00;;;;10502722;28;20193;-76
2022/06/30 05:57:26;;;;;;;3.97;1.85;;;;;21.10;100734.00;;;;10501353;28;20640;-76
2022/06/30 06:02:28;;;;;;;4.75;1.80;;;;;21.10;100725.00;;;;10455308;28;20208;-76
2022/06/30 06:07:30;;;;;;;5.13;1.75;;;;;20.80;100707.00;;;;10460386;28;20607;-76
2022/06/30 06:12:32;;;;;;;4.10;1.48;;;;;21.20;100709.00;;;;10460282;28;20190;-75
2022/06/30 06:17:40;;;;;;;4.88;1.70;;;;;21.10;100713.00;;;;10460449;28;20311;-76
2022/06/30 06:22:42;;;;;;;3.30;1.88;;;;;21.40;100728.00;;;;10517341;28;20693;-76
2022/06/30 06:29:05;;;;;;;4.93;1.42;;;;;21.60;100725.00;;;;10458526;28;20209;-76
2022/06/30 06:33:10;;;;;;;4.38;1.80;;;;;22.10;100728.00;;;;10479572;28;20198;-76
2022/06/30 06:38:12;;;;;;;3.50;1.60;;;;;22.40;100721.00;;;;10459942;28;20284;-76
2022/06/30 06:43:13;;;;;;;4.65;1.80;;;;;22.50;100712.00;;;;10460032;28;20202;-76
2022/06/30 06:48:15;;;;;;;7.10;1.92;;;;;23.00;100730.00;;;;10508302;28;20242;-76
2022/06/30 06:53:17;;;;;;;8.75;1.83;;;;;24.00;100737.00;;;;10478600;28;20593;-75
2022/06/30 06:58:19;;;;;;;2.70;1.63;;;;;24.00;100736.00;;;;10515440;28;20213;-76
2022/06/30 07:03:22;;;;;;;9.50;2.70;;;;;23.20;100733.00;;;;10478128;28;20192;-76
2022/06/30 07:08:24;;;;;;;3.08;1.58;;;;;23.40;100734.00;;;;10540110;28;20218;-76
2022/06/30 07:13:27;;;;;;;6.03;1.80;;;;;23.70;100735.00;;;;10508294;28;20188;-76
2022/06/30 07:18:29;;;;;;;5.43;1.85;;;;;23.00;100748.00;;;;10562864;28;20215;-76
2022/06/30 07:23:31;;;;;;;9.32;1.90;;;;;23.40;100744.00;;;;10550176;28;20254;-76
2022/06/30 07:28:34;;;;;;;3.35;1.70;;;;;24.10;100737.00;;;;10567077;28;20188;-76
2022/06/30 07:33:53;;;;;;;4.40;1.77;;;;;24.00;100747.00;;;;10522721;28;20208;-75
2022/06/30 07:38:55;;;;;;;3.20;1.98;;;;;24.60;100743.00;;;;10507692;28;20216;-76
2022/06/30 07:43:57;;;;;;;4.40;1.70;;;;;25.50;100752.00;;;;10507293;28;20201;-76
2022/06/30 07:48:59;;;;;;;5.63;1.75;;;;;25.60;100751.00;;;;10507524;28;20678;-76
2022/06/30 07:54:01;;;;;;;6.25;1.98;;;;;25.80;100752.00;;;;10506989;28;20189;-76
2022/06/30 07:59:03;;;;;;;6.50;1.95;;;;;24.50;100754.00;;;;10506392;28;20267;-76
2022/06/30 08:04:05;;;;;;;5.50;2.13;;;;;24.20;100760.00;;;;10506397;28;20205;-76
2022/06/30 08:09:07;;;;;;;5.20;2.20;;;;;25.30;100747.00;;;;10506561;28;20173;-76
2022/06/30 08:14:09;;;;;;;4.57;1.98;;;;;25.20;100748.00;;;;10523047;28;20192;-76
2022/06/30 08:19:11;;;;;;;4.78;2.00;;;;;26.30;100753.00;;;;10521831;28;20712;-76
2022/06/30 08:24:14;;;;;;;5.70;2.30;;;;;26.70;100767.00;;;;10489305;28;20197;-75
2022/06/30 08:29:16;;;;;;;3.28;2.03;;;;;27.70;100767.00;;;;10472997;28;20185;-76
2022/06/30 08:34:18;;;;;;;5.57;2.47;;;;;28.10;100764.00;;;;10475404;28;20208;-74
2022/06/30 08:44:43;;;;;;;6.93;2.13;;;;;29.50;100754.00;;;;10496805;28;20185;-73
2022/06/30 08:49:45;;;;;;;5.32;2.25;;;;;30.00;100762.00;;;;10479707;28;20193;-73
2022/06/30 08:54:51;;;;;;;3.92;2.55;;;;;30.10;100750.00;;;;10479263;28;20600;-73
2022/06/30 08:59:53;;;;;;;6.05;2.20;;;;;30.10;100751.00;;;;10487590;28;20667;-74
2022/06/30 09:04:55;;;;;;;5.63;2.45;;;;;28.70;100747.00;;;;10504314;28;20571;-74
2022/06/30 09:09:57;;;;;;;5.53;2.47;;;;;28.90;100728.00;;;;10503971;28;20189;-74
2022/06/30 09:15:00;;;;;;;5.88;2.55;;;;;30.30;100729.00;;;;10487195;28;20220;-74
2022/06/30 09:20:05;;;;;;;7.55;2.30;;;;;30.10;100721.00;;;;10486956;28;20237;-74
2022/06/30 09:25:08;;;;;;;5.53;1.77;;;;;30.40;100735.00;;;;10487010;28;20255;-74
2022/06/30 09:30:15;;;;;;;4.00;1.85;;;;;29.30;100728.00;;;;10518295;28;20174;-74
2022/06/30 09:35:22;;;;;;;5.40;2.20;;;;;28.80;100724.00;;;;10464531;28;20190;-73
2022/06/30 09:41:04;;;;;;;3.38;1.60;;;;;29.50;100733.00;;;;10461221;28;20209;-73
2022/06/30 09:46:06;;;;;;;6.30;2.05;;;;;29.10;100738.00;;;;10510991;28;20272;-74
2022/06/30 09:51:08;;;;;;;3.55;1.60;;;;;27.60;100735.00;;;;10477833;28;20830;-74
2022/06/30 09:56:15;;;;;;;5.25;1.80;;;;;26.50;100750.00;;;;10481643;28;20221;-74
2022/06/30 10:01:17;;;;;;;5.47;2.13;;;;;26.00;100746.00;;;;10518525;28;20224;-74
2022/06/30 10:06:20;;;;;;;3.92;1.60;;;;;25.20;100744.00;;;;10502254;28;20250;-74
2022/06/30 10:11:23;;;;;;;4.85;1.70;;;;;24.80;100734.00;;;;10518704;28;20572;-74
2022/06/30 10:16:27;;;;;;;4.03;2.17;;;;;24.40;100746.00;;;;10485710;28;20195;-74
2022/06/30 10:21:29;;;;;;;4.53;2.30;;;;;23.30;100760.00;;;;10501627;28;20311;-74
2022/06/30 10:32:08;;;;;;;3.50;1.75;;;;;22.60;100721.00;;;;10507960;28;20267;-74
2022/06/30 10:37:19;;;;;;;5.03;2.42;;;;;21.80;100701.00;;;;10459945;28;20189;-76
2022/06/30 10:42:45;;;;;;;3.92;2.05;;;;;21.60;100729.00;;;;10477964;28;20324;-76
2022/06/30 10:48:08;;;;;;;2.95;2.00;;;;;21.90;100753.00;;;;10468293;28;20228;-76
2022/06/30 10:53:15;;;;;;;1.80;1.60;;;;;22.00;100744.00;;;;10481398;28;20204;-76
2022/06/30 10:58:19;;;;;;;3.35;1.60;;;;;21.90;100744.00;;;;10509080;28;20197;-75
2022/06/30 11:03:34;;;;;;;6.45;1.92;;;;;22.50;100727.00;;;;10486727;28;20190;-75
2022/06/30 11:08:50;;;;;;;4.60;1.70;;;;;23.00;100685.00;;;;10467112;28;20256;-76
2022/06/30 11:14:03;;;;;;;5.35;1.77;;;;;23.10;100695.00;;;;10466584;28;20189;-74
2022/06/30 11:19:15;;;;;;;6.00;1.80;;;;;22.60;100710.00;;;;10499779;28;20205;-76
2022/06/30 11:24:21;;;;;;;3.75;1.60;;;;;22.40;100723.00;;;;10466196;28;20204;-76
2022/06/30 11:29:26;;;;;;;3.53;1.60;;;;;22.10;100717.00;;;;10483176;28;20810;-74
2022/06/30 11:34:31;;;;;;;3.78;1.95;;;;;21.80;100727.00;;;;10514106;28;20193;-73
2022/06/30 11:39:33;;;;;;;3.50;1.75;;;;;21.40;100749.00;;;;10507980;28;20274;-75
2022/06/30 11:44:40;;;;;;;4.90;1.90;;;;;21.60;100762.00;;;;10491012;28;20192;-76
2022/06/30 11:49:54;;;;;;;4.70;2.13;;;;;21.70;100743.00;;;;10506703;28;20627;-76
2022/06/30 11:54:58;;;;;;;5.80;2.05;;;;;21.70;100736.00;;;;10506652;28;20197;-74
2022/06/30 12:00:13;;;;;;;4.53;1.70;;;;;21.90;100722.00;;;;10506916;28;20209;-75
2022/06/30 12:05:17;;;;;;;1.02;0.93;;;;;21.50;100725.00;;;;10506669;28;20271;-75
2022/06/30 12:10:24;;;;;;;2.17;1.20;;;;;22.10;100714.00;;;;10523077;28;20173;-75
2022/06/30 12:15:30;;;;;;;2.95;1.45;;;;;23.60;100711.00;;;;10523856;28;20272;-75
2022/06/30 12:20:33;;;;;;;5.35;1.98;;;;;24.70;100712.00;;;;10522625;28;20205;-75
2022/06/30 12:25:35;;;;;;;5.05;2.38;;;;;25.60;100713.00;;;;10505429;28;20258;-75
2022/06/30 12:30:38;;;;;;;3.17;2.00;;;;;24.90;100720.00;;;;10540002;28;20272;-75
2022/06/30 12:35:39;;;;;;;6.82;2.40;;;;;23.30;100720.00;;;;10463580;28;20205;-75
2022/06/30 12:40:42;;;;;;;4.53;2.42;;;;;22.30;100734.00;;;;10463397;28;20584;-75
2022/06/30 12:45:55;;;;;;;5.10;2.17;;;;;21.80;100739.00;;;;10479628;28;20544;-75
2022/06/30 12:50:58;;;;;;;3.83;1.65;;;;;21.10;100745.00;;;;10430304;28;20209;-74
2022/06/30 12:56:20;;;;;;;4.75;1.88;;;;;20.80;100754.00;;;;10479487;28;20185;-75
2022/06/30 13:01:25;;;;;;;5.13;1.60;;;;;20.80;100763.00;;;;10449793;28;20254;-74
2022/06/30 13:06:30;;;;;;;5.18;2.30;;;;;21.10;100746.00;;;;10537721;28;20189;-74
2022/06/30 13:11:34;;;;;;;6.40;2.20;;;;;21.70;100723.00;;;;10521014;28;20181;-75
2022/06/30 13:16:36;;;;;;;5.18;2.13;;;;;21.90;100748.00;;;;10520681;28;20184;-75
2022/06/30 13:21:40;;;;;;;6.35;2.53;;;;;21.50;100748.00;;;;10486609;28;20216;-74
2022/06/30 13:26:43;;;;;;;6.93;2.45;;;;;21.60;100757.00;;;;10519425;28;20666;-74
2022/06/30 13:31:46;;;;;;;3.00;2.15;;;;;20.90;100779.00;;;;10503331;28;20181;-74
2022/06/30 13:36:48;;;;;;;5.90;2.55;;;;;20.70;100786.00;;;;10486522;28;20571;-74
2022/06/30 13:41:50;;;;;;;5.82;2.38;;;;;20.50;100783.00;;;;10503151;28;20204;-74
2022/06/30 13:46:53;;;;;;;4.65;2.40;;;;;20.10;100787.00;;;;10503162;28;20651;-75
2022/06/30 13:51:55;;;;;;;6.53;2.53;;;;;19.60;100782.00;;;;10502375;28;20181;-74
2022/06/30 13:56:57;;;;;;;3.65;2.40;;;;;19.30;100780.00;;;;10519146;28;20207;-75
2022/06/30 14:01:59;;;;;;;4.78;2.20;;;;;18.90;100795.00;;;;10518937;28;20216;-75
2022/06/30 14:07:02;;;;;;;4.28;1.98;;;;;18.50;100817.00;;;;10502249;28;20213;-74
2022/06/30 14:12:04;;;;;;;4.88;2.70;;;;;18.10;100873.00;;;;10485210;28;20195;-74
2022/06/30 14:17:06;;;;;;;6.57;2.58;;;;;17.90;100890.00;;;;10503568;28;20188;-74
2022/06/30 14:22:08;;;;;;;4.35;2.88;;;;;17.80;100852.00;;;;10494035;28;20220;-74
2022/06/30 14:27:10;;;;;;;6.07;2.50;;;;;17.60;100836.00;;;;10510521;28;20268;-74
2022/06/30 14:32:12;;;;;;;3.65;1.90;;;;;17.20;100852.00;;;;10477608;28;20207;-74
2022/06/30 14:37:15;;;;;;;3.80;1.40;;;;;17.00;100870.00;;;;10493528;28;20223;-74
2022/06/30 14:47:43;;;;;;;3.20;1.57;;;;;15.80;100880.00;;;;10493131;28;20193;-74
2022/06/30 14:52:47;;;;;;;3.37;1.97;;;;;15.30;100878.00;;;;10509991;28;20177;-74
2022/06/30 14:57:50;;;;;;;4.27;1.77;;;;;14.70;100863.00;;;;10525901;28;20212;-74
2022/06/30 15:02:53;;;;;;;2.90;2.10;;;;;14.50;100882.00;;;;10508957;28;20980;-74
2022/06/30 15:07:56;;;;;;;5.57;1.90;;;;;14.40;100847.00;;;;10492476;28;20220;-73
2022/06/30 15:12:58;;;;;;;8.47;2.47;;;;;14.10;100889.00;;;;10508953;28;20631;-73
2022/06/30 15:18:00;;;;;;;7.03;2.90;;;;;14.10;100897.00;;;;10524866;28;20191;-72
2022/06/30 15:28:22;;;;;;;4.00;2.20;;;;;14.20;100869.00;;;;10507842;28;20659;-73
2022/06/30 15:33:24;;;;;;;4.33;2.20;;;;;14.20;100879.00;;;;10507468;28;20197;-72
2022/06/30 15:38:26;;;;;;;3.43;2.10;;;;;14.10;100894.00;;;;10507115;28;20219;-72
2022/06/30 15:43:28;;;;;;;3.70;2.67;;;;;14.10;100850.00;;;;10523583;28;20185;-72
2022/06/30 15:48:30;;;;;;;3.63;3.00;;;;;14.20;100849.00;;;;10523569;28;20235;-72
2022/06/30 15:53:32;;;;;;;3.57;2.80;;;;;14.20;100866.00;;;;10506542;28;20193;-72
2022/06/30 15:58:37;;;;;;;2.97;2.40;;;;;14.40;100866.00;;;;10540830;28;20205;-72
2022/06/30 16:03:42;;;;;;;3.77;2.67;;;;;14.50;100875.00;;;;10506039;28;20200;-72
2022/06/30 16:08:43;;;;;;;4.97;2.87;;;;;14.30;100915.00;;;;10487129;28;20644;-72
2022/06/30 16:13:46;;;;;;;5.73;2.33;;;;;14.40;100817.00;;;;10485405;28;20196;-73
2022/06/30 16:18:48;;;;;;;4.90;2.40;;;;;14.30;100860.00;;;;10489580;28;20205;-72
2022/06/30 16:23:51;;;;;;;5.20;2.33;;;;;14.30;100861.00;;;;10491143;28;20197;-71
2022/06/30 16:28:53;;;;;;;2.83;2.30;;;;;14.40;100870.00;;;;10482379;28;20208;-72
2022/06/30 16:33:56;;;;;;;5.00;2.90;;;;;14.60;100864.00;;;;10466301;28;20201;-71
2022/06/30 16:38:58;;;;;;;4.70;2.83;;;;;14.60;100871.00;;;;10449352;28;20564;-72
2022/06/30 16:44:02;;;;;;;6.37;3.70;;;;;14.50;100878.00;;;;10498682;28;20213;-71
2022/06/30 16:49:04;;;;;;;5.20;3.13;;;;;14.50;100896.00;;;;10486539;27;20675;-71
2022/06/30 16:54:07;;;;;;;5.10;2.50;;;;;14.60;100877.00;;;;10482479;28;20251;-71
2022/06/30 16:59:10;;;;;;;3.10;2.80;;;;;14.50;100856.00;;;;10463707;28;20221;-72
2022/06/30 17:04:12;;;;;;;4.43;2.03;;;;;14.30;100867.00;;;;10509429;28;20193;-71
2022/06/30 17:09:14;;;;;;;8.20;2.97;;;;;14.30;100872.00;;;;10510269;27;20295;-71
2022/06/30 17:14:17;;;;;;;2.40;2.20;;;;;14.30;100895.00;;;;10476286;27;20280;-72
2022/06/30 17:19:19;;;;;;;4.93;2.10;;;;;14.40;100895.00;;;;10486312;28;20209;-72
2022/06/30 17:24:21;;;;;;;3.73;2.77;;;;;14.30;100900.00;;;;10445497;28;20242;-71
2022/06/30 17:29:23;;;;;;;4.17;2.90;;;;;14.30;100886.00;;;;10488246;28;20288;-72
2022/06/30 17:34:28;;;;;;;4.43;3.00;;;;;14.20;100903.00;;;;10511481;28;20201;-72
2022/06/30 17:39:31;;;;;;;7.43;2.60;;;;;14.20;100878.00;;;;10440603;28;20217;-72
2022/06/30 17:44:35;;;;;;;3.87;3.03;;;;;14.10;100882.00;;;;10472453;28;20216;-72
2022/06/30 17:49:37;;;;;;;2.83;2.47;;;;;14.10;100881.00;;;;10497264;27;20231;-72
2022/06/30 17:54:40;;;;;;;9.10;3.63;;;;;14.10;100878.00;;;;10455563;28;20213;-72
2022/06/30 17:59:42;;;;;;;5.13;3.13;;;;;14.10;100900.00;;;;10457082;28;20795;-72
2022/06/30 18:04:44;;;;;;;3.00;2.73;;;;;14.00;100891.00;;;;10494989;28;20189;-71
2022/06/30 18:15:07;;;;;;;4.67;2.93;;;;;13.90;100877.00;;;;10500135;28;20200;-72
2022/06/30 18:20:09;;;;;;;6.70;3.27;;;;;14.00;100878.00;;;;10524697;28;20205;-71
2022/06/30 18:25:11;;;;;;;7.50;2.63;;;;;14.00;100886.00;;;;10511823;28;20548;-71
2022/06/30 18:30:15;;;;;;;4.87;2.90;;;;;14.00;100909.00;;;;10497838;28;20283;-71
2022/06/30 18:35:17;;;;;;;4.43;2.10;;;;;13.90;100917.00;;;;10477585;28;20230;-71
2022/06/30 18:40:27;;;;;;;4.70;2.40;;;;;13.80;100910.00;;;;10516889;28;20734;-71
2022/06/30 18:45:30;;;;;;;4.87;2.70;;;;;13.80;100921.00;;;;10531609;28;20226;-72
2022/06/30 18:50:33;;;;;;;4.63;2.07;;;;;13.80;100929.00;;;;10456952;28;20284;-71
2022/06/30 18:55:35;;;;;;;2.60;2.00;;;;;13.80;100923.00;;;;10494803;28;20246;-71
2022/06/30 19:00:37;;;;;;;4.23;2.50;;;;;13.80;100907.00;;;;10487918;28;20228;-71
2022/06/30 19:05:39;;;;;;;9.33;3.17;;;;;13.80;100889.00;;;;10559400;28;20194;-72
2022/06/30 19:10:40;;;;;;;4.50;2.63;;;;;13.70;100877.00;;;;10509668;28;20785;-72
2022/06/30 19:15:43;;;;;;;3.20;2.43;;;;;13.70;100901.00;;;;10474646;28;20298;-72
2022/06/30 19:20:46;;;;;;;4.40;2.37;;;;;13.80;100917.00;;;;10502845;28;20201;-72
2022/06/30 19:25:52;;;;;;;4.23;3.30;;;;;13.80;100917.00;;;;10492517;28;20568;-72
2022/06/30 19:30:57;;;;;;;5.47;2.53;;;;;13.70;100929.00;;;;10507528;28;20185;-71
2022/06/30 19:35:59;;;;;;;4.37;2.63;;;;;13.70;100917.00;;;;10523439;28;20190;-72
2022/06/30 19:41:02;;;;;;;7.30;3.23;;;;;13.60;100938.00;;;;10518911;28;20196;-72
2022/06/30 19:46:08;;;;;;;4.50;2.90;;;;;13.50;100939.00;;;;10503128;28;20193;-71
2022/06/30 19:51:11;;;;;;;5.47;3.00;;;;;13.50;100951.00;;;;10477093;28;20196;-72
2022/06/30 19:56:14;;;;;;;5.13;3.50;;;;;13.40;100964.00;;;;10494892;28;20188;-72
2022/06/30 20:01:19;;;;;;;4.63;3.60;;;;;13.30;100975.00;;;;10501501;28;20216;-72
2022/06/30 20:06:21;;;;;;;4.87;3.40;;;;;13.30;100979.00;;;;10503804;28;20185;-72
2022/06/30 20:11:28;;;;;;;6.30;4.13;;;;;13.20;100985.00;;;;10480284;28;20205;-72
2022/06/30 20:16:31;;;;;;;4.77;3.50;;;;;13.20;100976.00;;;;10495980;28;20742;-72
2022/06/30 20:21:35;;;;;;;6.00;4.00;;;;;13.20;100995.00;;;;10520228;28;20293;-72
2022/06/30 20:26:38;;;;;;;8.23;5.60;;;;;13.20;101005.00;;;;10473228;28;20209;-72
2022/06/30 20:31:40;;;;;;;8.33;5.30;;;;;13.20;101015.00;;;;10500757;28;20198;-72
2022/06/30 20:36:43;;;;;;;10.77;6.77;;;;;13.20;101009.00;;;;10513486;28;20185;-72
2022/06/30 20:41:45;;;;;;;11.53;6.50;;;;;13.20;101009.00;;;;10499809;28;20251;-72
2022/06/30 20:46:50;;;;;;;10.33;7.07;;;;;13.10;101004.00;;;;10506172;28;20186;-72
2022/06/30 20:51:53;;;;;;;9.97;6.40;;;;;13.00;101018.00;;;;10491075;28;20211;-72
2022/06/30 20:56:56;;;;;;;7.70;6.63;;;;;12.90;101048.00;;;;10559168;28;20266;-72
2022/06/30 21:01:58;;;;;;;8.87;6.80;;;;;12.80;101039.00;;;;10540316;28;20205;-75
2022/06/30 21:07:03;;;;;;;11.30;7.23;;;;;12.80;101032.00;;;;10502969;28;20544;-72
2022/06/30 21:12:05;;;;;;;12.40;8.40;;;;;12.70;101022.00;;;;10502919;28;20189;-75
2022/06/30 21:17:07;;;;;;;18.10;8.37;;;;;12.70;101053.00;;;;10560712;28;20659;-75
2022/06/30 21:22:09;;;;;;;16.53;8.77;;;;;12.70;101065.00;;;;10507976;28;20236;-74
2022/06/30 21:27:12;;;;;;;26.60;12.63;;;;;12.70;101045.00;;;;10482261;28;20276;-72
2022/06/30 21:32:16;;;;;;;24.80;10.87;;;;;12.80;101038.00;;;;10477372;28;20655;-74
2022/06/30 21:37:22;;;;;;;24.20;10.50;;;;;12.90;101041.00;;;;10501975;28;20610;-75
2022/06/30 21:42:24;;;;;;;23.17;9.60;;;;;12.90;101048.00;;;;10515356;28;20570;-74
2022/06/30 21:47:27;;;;;;;22.67;10.53;;;;;12.90;101050.00;;;;10522636;28;20606;-74
2022/06/30 21:52:30;;;;;;;23.37;10.77;;;;;12.90;101056.00;;;;10508857;28;20809;-74
2022/06/30 21:57:32;;;;;;;25.37;10.80;;;;;12.90;101064.00;;;;10517504;28;20216;-74
2022/06/30 22:02:34;;;;;;;19.37;10.00;;;;;12.90;101049.00;;;;10491571;28;20255;-74
2022/06/30 22:07:36;;;;;;;18.73;9.30;;;;;12.90;101040.00;;;;10517942;28;20254;-74
2022/06/30 22:12:39;;;;;;;19.03;9.37;;;;;12.80;101036.00;;;;10525002;28;20292;-75
2022/06/30 22:17:41;;;;;;;18.97;8.77;;;;;12.70;101041.00;;;;10494691;28;20220;-74
2022/06/30 22:22:43;;;;;;;14.90;8.47;;;;;12.60;101041.00;;;;10504081;28;20273;-74
2022/06/30 22:27:45;;;;;;;18.40;9.13;;;;;12.50;101046.00;;;;10441316;28;20251;-74
2022/06/30 22:32:47;;;;;;;14.30;8.50;;;;;12.40;101036.00;;;;10494007;28;20188;-74
2022/06/30 22:37:49;;;;;;;15.97;9.37;;;;;12.40;101032.00;;;;10519023;28;20197;-74
2022/06/30 22:42:51;;;;;;;16.20;9.07;;;;;12.30;101049.00;;;;10526529;28;20259;-74
2022/06/30 22:47:53;;;;;;;15.43;8.90;;;;;12.30;101036.00;;;;10510076;28;20193;-72
2022/06/30 22:52:55;;;;;;;17.47;9.27;;;;;12.20;101046.00;;;;10526445;28;20246;-73
2022/06/30 22:57:58;;;;;;;15.93;8.13;;;;;12.20;101053.00;;;;10509302;28;20223;-72
2022/06/30 23:03:00;;;;;;;17.47;8.87;;;;;12.10;101059.00;;;;10523989;28;20201;-72
2022/06/30 23:08:03;;;;;;;19.93;9.63;;;;;12.10;101059.00;;;;10508651;28;20247;-73
2022/06/30 23:13:05;;;;;;;19.97;9.80;;;;;12.10;101067.00;;;;10525018;28;20255;-73
2022/06/30 23:18:07;;;;;;;18.70;9.53;;;;;12.10;101068.00;;;;10492717;28;20516;-73
2022/06/30 23:23:09;;;;;;;18.33;9.13;;;;;12.10;101076.00;;;;10508885;28;20204;-73
2022/06/30 23:28:13;;;;;;;14.67;8.30;;;;;12.10;101076.00;;;;10491243;28;20190;-73
2022/06/30 23:33:15;;;;;;;12.67;8.77;;;;;12.10;101061.00;;;;10486859;28;20281;-73
2022/06/30 23:38:17;;;;;;;14.00;8.70;;;;;12.00;101050.00;;;;10482647;28;20552;-73
2022/06/30 23:43:20;;;;;;;15.20;9.40;;;;;12.00;101052.00;;;;10482514;28;20205;-73
2022/06/30 23:48:22;;;;;;;16.00;9.23;;;;;11.90;101043.00;;;;10448795;28;20221;-73
2022/06/30 23:53:25;;;;;;;16.57;8.13;;;;;11.90;101061.00;;;;10499008;28;20204;-73
2022/06/30 23:58:27;;;;;;;12.40;7.30;;;;;11.90;101046.00;;;;10506845;28;20209;-73
